sensor_id;sensor_type;location;lat;lon;timestamp;pressure;altitude;pressure_sealevel;temperature
69590;BMP180;56792;50.644;17.984;2024-01-15T00:00:51;97774.60;;;0.00
69590;BMP180;56792;50.644;17.984;2024-01-15T00:03:22;97774.40;;;0.00
69590;BMP180;56792;50.644;17.984;2024-01-15T00:05:53;97765.00;;;0.00
69590;BMP180;56792;50.644;17.984;2024-01-15T00:08:25;97769.00;;;0.00
69590;BMP180;56792;50.644;17.984;2024-01-15T00:10:56;97773.20;;;0.02
69590;BMP180;56792;50.644;17.984;2024-01-15T00:13:27;97760.00;;;0.10
69590;BMP180;56792;50.644;17.984;2024-01-15T00:15:58;97760.20;;;0.08
69590;BMP180;56792;50.644;17.984;2024-01-15T00:18:29;97755.40;;;0.10
69590;BMP180;56792;50.644;17.984;2024-01-15T00:21:00;97752.40;;;0.08
69590;BMP180;56792;50.644;17.984;2024-01-15T00:23:31;97745.20;;;0.08
69590;BMP180;56792;50.644;17.984;2024-01-15T00:26:02;97743.20;;;0.08
69590;BMP180;56792;50.644;17.984;2024-01-15T00:28:33;97737.80;;;0.10
69590;BMP180;56792;50.644;17.984;2024-01-15T00:31:05;97736.80;;;0.10
69590;BMP180;56792;50.644;17.984;2024-01-15T00:33:36;97728.60;;;0.06
69590;BMP180;56792;50.644;17.984;2024-01-15T00:36:08;97726.80;;;0.00
69590;BMP180;56792;50.644;17.984;2024-01-15T00:38:39;97720.60;;;0.00
69590;BMP180;56792;50.644;17.984;2024-01-15T00:41:10;97717.60;;;0.00
69590;BMP180;56792;50.644;17.984;2024-01-15T00:43:41;97715.00;;;0.00
69590;BMP180;56792;50.644;17.984;2024-01-15T00:46:13;97715.20;;;0.00
69590;BMP180;56792;50.644;17.984;2024-01-15T00:48:44;97704.20;;;0.00
69590;BMP180;56792;50.644;17.984;2024-01-15T00:51:16;97705.40;;;0.00
69590;BMP180;56792;50.644;17.984;2024-01-15T00:53:47;97693.40;;;-0.02
69590;BMP180;56792;50.644;17.984;2024-01-15T00:56:19;97691.20;;;0.00
69590;BMP180;56792;50.644;17.984;2024-01-15T00:58:50;97684.40;;;-0.10
69590;BMP180;56792;50.644;17.984;2024-01-15T01:01:21;97679.20;;;-0.10
69590;BMP180;56792;50.644;17.984;2024-01-15T01:03:52;97675.20;;;-0.10
69590;BMP180;56792;50.644;17.984;2024-01-15T01:06:23;97671.80;;;-0.10
69590;BMP180;56792;50.644;17.984;2024-01-15T01:08:54;97669.00;;;-0.10
69590;BMP180;56792;50.644;17.984;2024-01-15T01:11:25;97672.00;;;-0.10
69590;BMP180;56792;50.644;17.984;2024-01-15T01:13:56;97672.00;;;-0.10
69590;BMP180;56792;50.644;17.984;2024-01-15T01:16:27;97670.40;;;-0.10
69590;BMP180;56792;50.644;17.984;2024-01-15T01:18:58;97659.80;;;-0.10
69590;BMP180;56792;50.644;17.984;2024-01-15T01:21:29;97658.40;;;-0.10
69590;BMP180;56792;50.644;17.984;2024-01-15T01:24:00;97657.80;;;-0.10
69590;BMP180;56792;50.644;17.984;2024-01-15T01:26:31;97660.80;;;-0.10
69590;BMP180;56792;50.644;17.984;2024-01-15T01:29:03;97656.00;;;-0.10
69590;BMP180;56792;50.644;17.984;2024-01-15T01:31:45;97654.40;;;-0.10
69590;BMP180;56792;50.644;17.984;2024-01-15T01:34:17;97645.60;;;-0.10
69590;BMP180;56792;50.644;17.984;2024-01-15T01:36:48;97639.40;;;-0.08
69590;BMP180;56792;50.644;17.984;2024-01-15T01:39:19;97646.00;;;-0.10
69590;BMP180;56792;50.644;17.984;2024-01-15T01:41:50;97642.20;;;-0.10
69590;BMP180;56792;50.644;17.984;2024-01-15T01:44:21;97638.00;;;-0.10
69590;BMP180;56792;50.644;17.984;2024-01-15T01:46:53;97629.80;;;-0.10
69590;BMP180;56792;50.644;17.984;2024-01-15T01:49:26;97631.00;;;-0.10
69590;BMP180;56792;50.644;17.984;2024-01-15T01:51:59;97624.20;;;-0.10
69590;BMP180;56792;50.644;17.984;2024-01-15T01:54:33;97618.20;;;-0.10
69590;BMP180;56792;50.644;17.984;2024-01-15T01:57:06;97622.80;;;-0.10
69590;BMP180;56792;50.644;17.984;2024-01-15T01:59:38;97614.80;;;-0.10
69590;BMP180;56792;50.644;17.984;2024-01-15T02:02:09;97608.20;;;-0.10
69590;BMP180;56792;50.644;17.984;2024-01-15T02:04:41;97614.20;;;-0.10
69590;BMP180;56792;50.644;17.984;2024-01-15T02:07:12;97611.40;;;-0.10
69590;BMP180;56792;50.644;17.984;2024-01-15T02:09:44;97601.80;;;0.00
69590;BMP180;56792;50.644;17.984;2024-01-15T02:12:15;97605.60;;;0.04
69590;BMP180;56792;50.644;17.984;2024-01-15T02:14:47;97602.80;;;0.10
69590;BMP180;56792;50.644;17.984;2024-01-15T02:17:18;97588.80;;;0.24
69590;BMP180;56792;50.644;17.984;2024-01-15T02:19:49;97587.00;;;0.30
69590;BMP180;56792;50.644;17.984;2024-01-15T02:22:20;97585.20;;;0.30
69590;BMP180;56792;50.644;17.984;2024-01-15T02:24:51;97587.60;;;0.40
69590;BMP180;56792;50.644;17.984;2024-01-15T02:27:23;97590.00;;;0.40
69590;BMP180;56792;50.644;17.984;2024-01-15T02:29:54;97583.20;;;0.40
69590;BMP180;56792;50.644;17.984;2024-01-15T02:32:26;97577.00;;;0.48
69590;BMP180;56792;50.644;17.984;2024-01-15T02:34:57;97569.60;;;0.50
69590;BMP180;56792;50.644;17.984;2024-01-15T02:37:28;97570.20;;;0.50
69590;BMP180;56792;50.644;17.984;2024-01-15T02:39:59;97571.60;;;0.60
69590;BMP180;56792;50.644;17.984;2024-01-15T02:42:30;97561.00;;;0.60
69590;BMP180;56792;50.644;17.984;2024-01-15T02:45:01;97558.80;;;0.60
69590;BMP180;56792;50.644;17.984;2024-01-15T02:47:32;97549.60;;;0.60
69590;BMP180;56792;50.644;17.984;2024-01-15T02:50:04;97550.80;;;0.60
69590;BMP180;56792;50.644;17.984;2024-01-15T02:52:36;97548.20;;;0.64
69590;BMP180;56792;50.644;17.984;2024-01-15T02:55:08;97536.20;;;0.68
69590;BMP180;56792;50.644;17.984;2024-01-15T02:57:39;97528.20;;;0.70
69590;BMP180;56792;50.644;17.984;2024-01-15T03:00:12;97529.40;;;0.68
69590;BMP180;56792;50.644;17.984;2024-01-15T03:02:45;97516.40;;;0.68
69590;BMP180;56792;50.644;17.984;2024-01-15T03:05:17;97530.80;;;0.68
69590;BMP180;56792;50.644;17.984;2024-01-15T03:07:48;97526.00;;;0.70
69590;BMP180;56792;50.644;17.984;2024-01-15T03:10:19;97519.80;;;0.70
69590;BMP180;56792;50.644;17.984;2024-01-15T03:12:50;97522.20;;;0.70
69590;BMP180;56792;50.644;17.984;2024-01-15T03:15:21;97521.20;;;0.62
69590;BMP180;56792;50.644;17.984;2024-01-15T03:17:52;97511.60;;;0.60
69590;BMP180;56792;50.644;17.984;2024-01-15T03:20:23;97499.60;;;0.60
69590;BMP180;56792;50.644;17.984;2024-01-15T03:22:55;97498.60;;;0.60
69590;BMP180;56792;50.644;17.984;2024-01-15T03:25:26;97497.80;;;0.60
69590;BMP180;56792;50.644;17.984;2024-01-15T03:27:57;97493.00;;;0.60
69590;BMP180;56792;50.644;17.984;2024-01-15T03:30:28;97494.20;;;0.60
69590;BMP180;56792;50.644;17.984;2024-01-15T03:32:59;97494.00;;;0.60
69590;BMP180;56792;50.644;17.984;2024-01-15T03:35:30;97493.80;;;0.58
69590;BMP180;56792;50.644;17.984;2024-01-15T03:38:02;97498.00;;;0.60
69590;BMP180;56792;50.644;17.984;2024-01-15T03:40:33;97495.20;;;0.58
69590;BMP180;56792;50.644;17.984;2024-01-15T03:43:04;97495.00;;;0.56
69590;BMP180;56792;50.644;17.984;2024-01-15T03:45:35;97494.60;;;0.60
69590;BMP180;56792;50.644;17.984;2024-01-15T03:48:07;97495.00;;;0.60
69590;BMP180;56792;50.644;17.984;2024-01-15T03:50:38;97492.20;;;0.60
69590;BMP180;56792;50.644;17.984;2024-01-15T03:53:09;97491.20;;;0.60
69590;BMP180;56792;50.644;17.984;2024-01-15T03:55:40;97481.40;;;0.60
69590;BMP180;56792;50.644;17.984;2024-01-15T03:58:11;97487.20;;;0.60
69590;BMP180;56792;50.644;17.984;2024-01-15T04:00:45;97489.20;;;0.66
69590;BMP180;56792;50.644;17.984;2024-01-15T04:03:16;97489.00;;;0.60
69590;BMP180;56792;50.644;17.984;2024-01-15T04:05:48;97485.00;;;0.60
69590;BMP180;56792;50.644;17.984;2024-01-15T04:08:19;97481.40;;;0.64
69590;BMP180;56792;50.644;17.984;2024-01-15T04:10:50;97478.40;;;0.62
69590;BMP180;56792;50.644;17.984;2024-01-15T04:13:21;97483.00;;;0.60
69590;BMP180;56792;50.644;17.984;2024-01-15T04:15:52;97475.80;;;0.60
69590;BMP180;56792;50.644;17.984;2024-01-15T04:18:23;97482.80;;;0.60
69590;BMP180;56792;50.644;17.984;2024-01-15T04:20:54;97478.00;;;0.60
69590;BMP180;56792;50.644;17.984;2024-01-15T04:23:25;97479.40;;;0.60
69590;BMP180;56792;50.644;17.984;2024-01-15T04:25:56;97479.20;;;0.60
69590;BMP180;56792;50.644;17.984;2024-01-15T04:28:28;97480.00;;;0.60
69590;BMP180;56792;50.644;17.984;2024-01-15T04:30:59;97471.20;;;0.50
69590;BMP180;56792;50.644;17.984;2024-01-15T04:33:30;97463.40;;;0.50
69590;BMP180;56792;50.644;17.984;2024-01-15T04:36:05;97460.00;;;0.50
69590;BMP180;56792;50.644;17.984;2024-01-15T04:38:36;97454.20;;;0.60
69590;BMP180;56792;50.644;17.984;2024-01-15T04:41:07;97456.60;;;0.52
69590;BMP180;56792;50.644;17.984;2024-01-15T04:43:40;97467.00;;;0.60
69590;BMP180;56792;50.644;17.984;2024-01-15T04:46:11;97461.60;;;0.60
69590;BMP180;56792;50.644;17.984;2024-01-15T04:48:42;97457.40;;;0.50
69590;BMP180;56792;50.644;17.984;2024-01-15T04:51:13;97463.40;;;0.50
69590;BMP180;56792;50.644;17.984;2024-01-15T04:53:44;97461.80;;;0.50
69590;BMP180;56792;50.644;17.984;2024-01-15T04:56:15;97462.40;;;0.50
69590;BMP180;56792;50.644;17.984;2024-01-15T04:58:46;97462.80;;;0.50
69590;BMP180;56792;50.644;17.984;2024-01-15T05:01:19;97451.60;;;0.40
69590;BMP180;56792;50.644;17.984;2024-01-15T05:03:51;97462.60;;;0.40
69590;BMP180;56792;50.644;17.984;2024-01-15T05:06:22;97465.80;;;0.40
69590;BMP180;56792;50.644;17.984;2024-01-15T05:08:53;97465.00;;;0.40
69590;BMP180;56792;50.644;17.984;2024-01-15T05:11:24;97469.40;;;0.30
69590;BMP180;56792;50.644;17.984;2024-01-15T05:13:55;97462.20;;;0.30
69590;BMP180;56792;50.644;17.984;2024-01-15T05:16:26;97464.00;;;0.20
69590;BMP180;56792;50.644;17.984;2024-01-15T05:18:57;97460.60;;;0.20
69590;BMP180;56792;50.644;17.984;2024-01-15T05:21:28;97456.60;;;0.10
69590;BMP180;56792;50.644;17.984;2024-01-15T05:23:59;97456.20;;;0.10
69590;BMP180;56792;50.644;17.984;2024-01-15T05:26:30;97460.20;;;0.00
69590;BMP180;56792;50.644;17.984;2024-01-15T05:29:02;97445.20;;;0.00
69590;BMP180;56792;50.644;17.984;2024-01-15T05:31:33;97451.60;;;0.08
69590;BMP180;56792;50.644;17.984;2024-01-15T05:34:06;97452.00;;;0.08
69590;BMP180;56792;50.644;17.984;2024-01-15T05:36:37;97457.80;;;0.10
69590;BMP180;56792;50.644;17.984;2024-01-15T05:39:11;97459.40;;;0.10
69590;BMP180;56792;50.644;17.984;2024-01-15T05:41:42;97458.20;;;0.10
69590;BMP180;56792;50.644;17.984;2024-01-15T05:44:13;97461.40;;;0.10
69590;BMP180;56792;50.644;17.984;2024-01-15T05:46:44;97459.80;;;0.12
69590;BMP180;56792;50.644;17.984;2024-01-15T05:49:15;97453.80;;;0.20
69590;BMP180;56792;50.644;17.984;2024-01-15T05:51:46;97454.00;;;0.10
69590;BMP180;56792;50.644;17.984;2024-01-15T05:54:18;97457.60;;;0.10
69590;BMP180;56792;50.644;17.984;2024-01-15T05:56:49;97459.20;;;0.10
69590;BMP180;56792;50.644;17.984;2024-01-15T05:59:20;97452.40;;;0.10
69590;BMP180;56792;50.644;17.984;2024-01-15T06:01:51;97452.60;;;0.20
69590;BMP180;56792;50.644;17.984;2024-01-15T06:04:22;97455.60;;;0.14
69590;BMP180;56792;50.644;17.984;2024-01-15T06:06:53;97461.00;;;0.18
69590;BMP180;56792;50.644;17.984;2024-01-15T06:09:24;97468.60;;;0.18
69590;BMP180;56792;50.644;17.984;2024-01-15T06:11:56;97464.00;;;0.20
69590;BMP180;56792;50.644;17.984;2024-01-15T06:14:27;97456.20;;;0.18
69590;BMP180;56792;50.644;17.984;2024-01-15T06:16:58;97463.00;;;0.20
69590;BMP180;56792;50.644;17.984;2024-01-15T06:19:29;97454.60;;;0.20
69590;BMP180;56792;50.644;17.984;2024-01-15T06:22:00;97458.20;;;0.20
69590;BMP180;56792;50.644;17.984;2024-01-15T06:24:31;97458.40;;;0.20
69590;BMP180;56792;50.644;17.984;2024-01-15T06:27:03;97465.00;;;0.30
69590;BMP180;56792;50.644;17.984;2024-01-15T06:29:37;97462.80;;;0.28
69590;BMP180;56792;50.644;17.984;2024-01-15T06:32:08;97463.00;;;0.28
69590;BMP180;56792;50.644;17.984;2024-01-15T06:34:39;97465.60;;;0.30
69590;BMP180;56792;50.644;17.984;2024-01-15T06:37:10;97469.00;;;0.30
69590;BMP180;56792;50.644;17.984;2024-01-15T06:39:41;97474.60;;;0.30
69590;BMP180;56792;50.644;17.984;2024-01-15T06:42:13;97476.20;;;0.30
69590;BMP180;56792;50.644;17.984;2024-01-15T06:44:44;97478.80;;;0.30
69590;BMP180;56792;50.644;17.984;2024-01-15T06:47:15;97475.40;;;0.30
69590;BMP180;56792;50.644;17.984;2024-01-15T06:49:47;97489.80;;;0.30
69590;BMP180;56792;50.644;17.984;2024-01-15T06:52:20;97488.00;;;0.26
69590;BMP180;56792;50.644;17.984;2024-01-15T06:54:51;97489.00;;;0.20
69590;BMP180;56792;50.644;17.984;2024-01-15T06:57:22;97488.80;;;0.20
69590;BMP180;56792;50.644;17.984;2024-01-15T06:59:53;97492.80;;;0.20
69590;BMP180;56792;50.644;17.984;2024-01-15T07:02:24;97493.20;;;0.20
69590;BMP180;56792;50.644;17.984;2024-01-15T07:04:56;97491.80;;;0.24
69590;BMP180;56792;50.644;17.984;2024-01-15T07:07:27;97496.00;;;0.22
69590;BMP180;56792;50.644;17.984;2024-01-15T07:09:59;97498.20;;;0.30
69590;BMP180;56792;50.644;17.984;2024-01-15T07:12:30;97499.20;;;0.30
69590;BMP180;56792;50.644;17.984;2024-01-15T07:15:01;97506.40;;;0.30
69590;BMP180;56792;50.644;17.984;2024-01-15T07:17:33;97512.20;;;0.30
69590;BMP180;56792;50.644;17.984;2024-01-15T07:20:06;97517.40;;;0.40
69590;BMP180;56792;50.644;17.984;2024-01-15T07:22:38;97510.80;;;0.40
69590;BMP180;56792;50.644;17.984;2024-01-15T07:25:09;97511.00;;;0.40
69590;BMP180;56792;50.644;17.984;2024-01-15T07:27:40;97514.60;;;0.40
69590;BMP180;56792;50.644;17.984;2024-01-15T07:30:15;97520.80;;;0.40
69590;BMP180;56792;50.644;17.984;2024-01-15T07:32:46;97515.80;;;0.40
69590;BMP180;56792;50.644;17.984;2024-01-15T07:35:17;97514.40;;;0.40
69590;BMP180;56792;50.644;17.984;2024-01-15T07:37:49;97516.80;;;0.40
69590;BMP180;56792;50.644;17.984;2024-01-15T07:40:20;97518.60;;;0.40
69590;BMP180;56792;50.644;17.984;2024-01-15T07:42:51;97525.00;;;0.40
69590;BMP180;56792;50.644;17.984;2024-01-15T07:45:22;97531.20;;;0.42
69590;BMP180;56792;50.644;17.984;2024-01-15T07:47:53;97536.20;;;0.50
69590;BMP180;56792;50.644;17.984;2024-01-15T07:50:24;97539.80;;;0.48
69590;BMP180;56792;50.644;17.984;2024-01-15T07:52:56;97535.80;;;0.46
69590;BMP180;56792;50.644;17.984;2024-01-15T07:55:27;97540.00;;;0.40
69590;BMP180;56792;50.644;17.984;2024-01-15T07:57:58;97542.80;;;0.40
69590;BMP180;56792;50.644;17.984;2024-01-15T08:00:29;97541.00;;;0.42
69590;BMP180;56792;50.644;17.984;2024-01-15T08:03:00;97541.40;;;0.42
69590;BMP180;56792;50.644;17.984;2024-01-15T08:05:32;97542.80;;;0.40
69590;BMP180;56792;50.644;17.984;2024-01-15T08:08:04;97541.00;;;0.40
69590;BMP180;56792;50.644;17.984;2024-01-15T08:10:35;97546.80;;;0.40
69590;BMP180;56792;50.644;17.984;2024-01-15T08:13:06;97544.80;;;0.32
69590;BMP180;56792;50.644;17.984;2024-01-15T08:15:38;97548.20;;;0.40
69590;BMP180;56792;50.644;17.984;2024-01-15T08:18:09;97542.60;;;0.40
69590;BMP180;56792;50.644;17.984;2024-01-15T08:20:41;97543.80;;;0.50
69590;BMP180;56792;50.644;17.984;2024-01-15T08:23:12;97540.00;;;0.50
69590;BMP180;56792;50.644;17.984;2024-01-15T08:25:43;97533.80;;;0.50
69590;BMP180;56792;50.644;17.984;2024-01-15T08:28:14;97533.20;;;0.40
69590;BMP180;56792;50.644;17.984;2024-01-15T08:30:46;97532.40;;;0.40
69590;BMP180;56792;50.644;17.984;2024-01-15T08:33:17;97532.40;;;0.40
69590;BMP180;56792;50.644;17.984;2024-01-15T08:35:48;97543.60;;;0.40
69590;BMP180;56792;50.644;17.984;2024-01-15T08:38:19;97552.60;;;0.40
69590;BMP180;56792;50.644;17.984;2024-01-15T08:40:51;97550.80;;;0.60
69590;BMP180;56792;50.644;17.984;2024-01-15T08:43:23;97558.40;;;0.70
69590;BMP180;56792;50.644;17.984;2024-01-15T08:45:54;97557.40;;;0.70
69590;BMP180;56792;50.644;17.984;2024-01-15T08:48:25;97558.00;;;0.70
69590;BMP180;56792;50.644;17.984;2024-01-15T08:50:57;97555.20;;;0.70
69590;BMP180;56792;50.644;17.984;2024-01-15T08:53:28;97563.20;;;0.70
69590;BMP180;56792;50.644;17.984;2024-01-15T08:55:59;97561.00;;;0.70
69590;BMP180;56792;50.644;17.984;2024-01-15T08:58:30;97558.60;;;0.70
69590;BMP180;56792;50.644;17.984;2024-01-15T09:01:01;97558.20;;;0.70
69590;BMP180;56792;50.644;17.984;2024-01-15T09:03:32;97552.40;;;0.70
69590;BMP180;56792;50.644;17.984;2024-01-15T09:06:04;97560.20;;;0.68
69590;BMP180;56792;50.644;17.984;2024-01-15T09:08:36;97556.60;;;0.66
69590;BMP180;56792;50.644;17.984;2024-01-15T09:11:07;97561.40;;;0.70
69590;BMP180;56792;50.644;17.984;2024-01-15T09:13:38;97565.80;;;0.68
69590;BMP180;56792;50.644;17.984;2024-01-15T09:16:10;97565.20;;;0.70
69590;BMP180;56792;50.644;17.984;2024-01-15T09:18:41;97567.20;;;0.70
69590;BMP180;56792;50.644;17.984;2024-01-15T09:21:12;97567.80;;;0.70
69590;BMP180;56792;50.644;17.984;2024-01-15T09:23:43;97567.20;;;0.70
69590;BMP180;56792;50.644;17.984;2024-01-15T09:26:14;97563.40;;;0.70
69590;BMP180;56792;50.644;17.984;2024-01-15T09:28:46;97560.40;;;0.70
69590;BMP180;56792;50.644;17.984;2024-01-15T09:31:17;97554.20;;;0.80
69590;BMP180;56792;50.644;17.984;2024-01-15T09:33:49;97538.40;;;0.80
69590;BMP180;56792;50.644;17.984;2024-01-15T09:36:25;97535.80;;;0.90
69590;BMP180;56792;50.644;17.984;2024-01-15T09:38:56;97537.80;;;0.90
69590;BMP180;56792;50.644;17.984;2024-01-15T09:41:28;97539.00;;;0.90
69590;BMP180;56792;50.644;17.984;2024-01-15T09:43:59;97543.40;;;0.90
69590;BMP180;56792;50.644;17.984;2024-01-15T09:46:31;97542.20;;;0.90
69590;BMP180;56792;50.644;17.984;2024-01-15T09:49:02;97537.80;;;0.90
69590;BMP180;56792;50.644;17.984;2024-01-15T09:51:34;97539.20;;;0.90
69590;BMP180;56792;50.644;17.984;2024-01-15T09:54:06;97527.00;;;0.90
69590;BMP180;56792;50.644;17.984;2024-01-15T09:56:38;97528.40;;;0.82
69590;BMP180;56792;50.644;17.984;2024-01-15T09:59:10;97527.40;;;0.90
69590;BMP180;56792;50.644;17.984;2024-01-15T10:01:42;97522.00;;;0.86
69590;BMP180;56792;50.644;17.984;2024-01-15T10:04:13;97525.80;;;0.90
69590;BMP180;56792;50.644;17.984;2024-01-15T10:06:47;97522.60;;;0.90
69590;BMP180;56792;50.644;17.984;2024-01-15T10:09:21;97517.40;;;0.90
69590;BMP180;56792;50.644;17.984;2024-01-15T10:11:52;97516.60;;;0.90
69590;BMP180;56792;50.644;17.984;2024-01-15T10:14:23;97506.00;;;1.00
69590;BMP180;56792;50.644;17.984;2024-01-15T10:16:55;97498.40;;;1.08
69590;BMP180;56792;50.644;17.984;2024-01-15T10:19:27;97500.00;;;1.18
69590;BMP180;56792;50.644;17.984;2024-01-15T10:21:58;97502.00;;;1.20
69590;BMP180;56792;50.644;17.984;2024-01-15T10:24:30;97509.00;;;1.20
69590;BMP180;56792;50.644;17.984;2024-01-15T10:27:10;97509.40;;;1.20
69590;BMP180;56792;50.644;17.984;2024-01-15T10:29:42;97513.60;;;1.24
69590;BMP180;56792;50.644;17.984;2024-01-15T10:32:14;97506.20;;;1.30
69590;BMP180;56792;50.644;17.984;2024-01-15T10:34:45;97501.40;;;1.30
69590;BMP180;56792;50.644;17.984;2024-01-15T10:37:17;97494.80;;;1.30
69590;BMP180;56792;50.644;17.984;2024-01-15T10:39:49;97495.00;;;1.40
69590;BMP180;56792;50.644;17.984;2024-01-15T10:42:20;97504.80;;;1.30
69590;BMP180;56792;50.644;17.984;2024-01-15T10:44:51;97496.80;;;1.30
69590;BMP180;56792;50.644;17.984;2024-01-15T10:47:23;97495.40;;;1.20
69590;BMP180;56792;50.644;17.984;2024-01-15T10:49:55;97502.80;;;1.20
69590;BMP180;56792;50.644;17.984;2024-01-15T10:52:27;97496.40;;;1.20
69590;BMP180;56792;50.644;17.984;2024-01-15T10:55:00;97495.40;;;1.20
69590;BMP180;56792;50.644;17.984;2024-01-15T10:57:32;97498.20;;;1.20
69590;BMP180;56792;50.644;17.984;2024-01-15T11:00:04;97492.20;;;1.20
69590;BMP180;56792;50.644;17.984;2024-01-15T11:02:38;97484.20;;;1.20
69590;BMP180;56792;50.644;17.984;2024-01-15T11:05:09;97482.00;;;1.20
69590;BMP180;56792;50.644;17.984;2024-01-15T11:07:42;97477.80;;;1.20
69590;BMP180;56792;50.644;17.984;2024-01-15T11:10:43;97491.40;;;1.20
69590;BMP180;56792;50.644;17.984;2024-01-15T11:13:21;97499.00;;;1.20
69590;BMP180;56792;50.644;17.984;2024-01-15T11:16:04;97497.20;;;1.10
69590;BMP180;56792;50.644;17.984;2024-01-15T11:18:40;97499.00;;;1.00
69590;BMP180;56792;50.644;17.984;2024-01-15T11:21:28;97493.80;;;1.00
69590;BMP180;56792;50.644;17.984;2024-01-15T11:24:01;97485.80;;;1.00
69590;BMP180;56792;50.644;17.984;2024-01-15T11:26:46;97493.60;;;1.00
69590;BMP180;56792;50.644;17.984;2024-01-15T11:29:32;97488.80;;;1.00
69590;BMP180;56792;50.644;17.984;2024-01-15T11:32:06;97488.80;;;1.02
69590;BMP180;56792;50.644;17.984;2024-01-15T11:34:57;97485.80;;;1.00
69590;BMP180;56792;50.644;17.984;2024-01-15T11:40:22;97479.80;;;1.18
69590;BMP180;56792;50.644;17.984;2024-01-15T11:42:53;97480.40;;;1.20
69590;BMP180;56792;50.644;17.984;2024-01-15T11:45:25;97484.60;;;1.30
69590;BMP180;56792;50.644;17.984;2024-01-15T11:48:13;97478.40;;;1.38
69590;BMP180;56792;50.644;17.984;2024-01-15T11:50:46;97475.20;;;1.40
69590;BMP180;56792;50.644;17.984;2024-01-15T11:53:36;97474.40;;;1.40
69590;BMP180;56792;50.644;17.984;2024-01-15T11:56:16;97479.80;;;1.38
69590;BMP180;56792;50.644;17.984;2024-01-15T11:58:48;97475.60;;;1.30
69590;BMP180;56792;50.644;17.984;2024-01-15T12:01:21;97476.60;;;1.20
69590;BMP180;56792;50.644;17.984;2024-01-15T12:03:53;97473.80;;;1.12
69590;BMP180;56792;50.644;17.984;2024-01-15T12:06:24;97467.60;;;1.10
69590;BMP180;56792;50.644;17.984;2024-01-15T12:09:08;97460.80;;;1.00
69590;BMP180;56792;50.644;17.984;2024-01-15T12:11:44;97463.80;;;1.00
69590;BMP180;56792;50.644;17.984;2024-01-15T12:14:18;97468.00;;;0.90
69590;BMP180;56792;50.644;17.984;2024-01-15T12:16:50;97467.00;;;0.90
69590;BMP180;56792;50.644;17.984;2024-01-15T12:19:22;97466.40;;;0.90
69590;BMP180;56792;50.644;17.984;2024-01-15T12:21:56;97464.80;;;0.80
69590;BMP180;56792;50.644;17.984;2024-01-15T12:24:27;97462.80;;;0.78
69590;BMP180;56792;50.644;17.984;2024-01-15T12:26:58;97466.20;;;0.70
69590;BMP180;56792;50.644;17.984;2024-01-15T12:29:30;97470.80;;;0.70
69590;BMP180;56792;50.644;17.984;2024-01-15T12:32:01;97476.20;;;0.70
69590;BMP180;56792;50.644;17.984;2024-01-15T12:34:33;97477.20;;;0.70
69590;BMP180;56792;50.644;17.984;2024-01-15T12:37:04;97476.40;;;0.70
69590;BMP180;56792;50.644;17.984;2024-01-15T12:39:38;97471.60;;;0.78
69590;BMP180;56792;50.644;17.984;2024-01-15T12:42:09;97473.60;;;0.70
69590;BMP180;56792;50.644;17.984;2024-01-15T12:44:42;97476.20;;;0.70
69590;BMP180;56792;50.644;17.984;2024-01-15T12:47:13;97477.80;;;0.70
69590;BMP180;56792;50.644;17.984;2024-01-15T12:49:50;97483.60;;;0.70
69590;BMP180;56792;50.644;17.984;2024-01-15T12:52:23;97478.00;;;0.70
69590;BMP180;56792;50.644;17.984;2024-01-15T12:54:55;97478.60;;;0.80
69590;BMP180;56792;50.644;17.984;2024-01-15T12:57:26;97480.80;;;0.80
69590;BMP180;56792;50.644;17.984;2024-01-15T12:59:57;97479.00;;;0.80
69590;BMP180;56792;50.644;17.984;2024-01-15T13:02:28;97482.00;;;0.80
69590;BMP180;56792;50.644;17.984;2024-01-15T13:05:02;97476.80;;;0.80
69590;BMP180;56792;50.644;17.984;2024-01-15T13:07:34;97488.60;;;0.80
69590;BMP180;56792;50.644;17.984;2024-01-15T13:10:06;97477.40;;;0.80
69590;BMP180;56792;50.644;17.984;2024-01-15T13:12:39;97480.80;;;0.82
69590;BMP180;56792;50.644;17.984;2024-01-15T13:15:11;97478.40;;;0.90
69590;BMP180;56792;50.644;17.984;2024-01-15T13:17:42;97488.60;;;1.00
69590;BMP180;56792;50.644;17.984;2024-01-15T13:20:15;97490.00;;;1.00
69590;BMP180;56792;50.644;17.984;2024-01-15T13:22:46;97485.80;;;1.10
69590;BMP180;56792;50.644;17.984;2024-01-15T13:25:17;97492.60;;;1.00
69590;BMP180;56792;50.644;17.984;2024-01-15T13:27:48;97491.20;;;1.10
69590;BMP180;56792;50.644;17.984;2024-01-15T13:30:20;97492.20;;;1.10
69590;BMP180;56792;50.644;17.984;2024-01-15T13:32:51;97493.60;;;1.10
69590;BMP180;56792;50.644;17.984;2024-01-15T13:35:23;97494.40;;;1.10
69590;BMP180;56792;50.644;17.984;2024-01-15T13:37:54;97491.20;;;1.10
69590;BMP180;56792;50.644;17.984;2024-01-15T13:40:25;97487.60;;;1.00
69590;BMP180;56792;50.644;17.984;2024-01-15T13:42:57;97498.40;;;1.00
69590;BMP180;56792;50.644;17.984;2024-01-15T13:45:28;97495.20;;;1.00
69590;BMP180;56792;50.644;17.984;2024-01-15T13:47:59;97499.40;;;1.00
69590;BMP180;56792;50.644;17.984;2024-01-15T13:50:30;97499.00;;;1.00
69590;BMP180;56792;50.644;17.984;2024-01-15T13:53:01;97497.80;;;0.90
69590;BMP180;56792;50.644;17.984;2024-01-15T13:55:33;97496.00;;;0.90
69590;BMP180;56792;50.644;17.984;2024-01-15T13:58:04;97490.40;;;0.88
69590;BMP180;56792;50.644;17.984;2024-01-15T14:00:35;97499.80;;;0.86
69590;BMP180;56792;50.644;17.984;2024-01-15T14:03:07;97493.40;;;0.90
69590;BMP180;56792;50.644;17.984;2024-01-15T14:05:38;97492.20;;;0.90
69590;BMP180;56792;50.644;17.984;2024-01-15T14:08:09;97495.20;;;0.90
69590;BMP180;56792;50.644;17.984;2024-01-15T14:10:41;97496.60;;;0.90
69590;BMP180;56792;50.644;17.984;2024-01-15T14:13:12;97495.60;;;0.90
69590;BMP180;56792;50.644;17.984;2024-01-15T14:15:43;97490.00;;;0.90
69590;BMP180;56792;50.644;17.984;2024-01-15T14:18:15;97490.60;;;0.90
69590;BMP180;56792;50.644;17.984;2024-01-15T14:20:46;97495.60;;;0.84
69590;BMP180;56792;50.644;17.984;2024-01-15T14:23:17;97491.80;;;0.80
69590;BMP180;56792;50.644;17.984;2024-01-15T14:25:49;97490.00;;;0.80
69590;BMP180;56792;50.644;17.984;2024-01-15T14:28:20;97498.00;;;0.78
69590;BMP180;56792;50.644;17.984;2024-01-15T14:30:51;97497.80;;;0.74
69590;BMP180;56792;50.644;17.984;2024-01-15T14:33:22;97494.00;;;0.70
69590;BMP180;56792;50.644;17.984;2024-01-15T14:35:53;97495.20;;;0.70
69590;BMP180;56792;50.644;17.984;2024-01-15T14:38:24;97498.80;;;0.70